WIOO/PNK METAR and TAF weather

Enter ICAO airport designator
Station Type Date Time Source
WIOO METAR 2019/04/21 22:00 UTC NOAA

WIOO 212200Z 00000KT 6000 FEW013 25/24 Q1006 NOSIG


Station Type Date Time Source
WIOO Decoded METAR 2019/04/21 22:00 UTC NOAA

Pontianak / Supadio, Indonesia (WIOO) 00-09S 109-24E 3M
Apr 21, 2019 - 06:00 PM EDT / 2019.04.21 2200 UTC
Wind: Calm:0
Visibility: 3 mile(s):0
Sky conditions: mostly clear
Temperature: 77 F (25 C)
Dew Point: 75 F (24 C)
Relative Humidity: 94%
Pressure (altimeter): 29.71 in. Hg (1006 hPa)
ob: WIOO 212200Z 00000KT 6000 FEW013 25/24 Q1006 NOSIG
cycle: 22

Station Type Date Time Source
WIOO TAF 2014/03/26 00:51 UTC NOAA

TAF TAF WIOO 252300Z 2600/2624 10002KT 7000 SCT011
BECMG 2601/2603 08005KT 9999
TEMPO 2607/2610 15010KT 3000

Example: see airport list